^^
Station Historical Data
Daily Summary for February 1, 2018 Units:  English    Metric   Both
« Previous Day
Next Day »
Daily Weekly Monthly Yearly Custom
  High: Low: Average:
Temperature: TemperatureF °F 69.6 °F 77.4 °F
Dew Point: DewpointF °F 44.8 °F 48.2 °F
Humidity: Humidity% 24% 36%
Wind Speed: WindSpeedMPHmph -999.9mph -6mph
Wind Gust: WindSpeedGustMPHmph - -
Wind- -
Pressure: PressureIn in 29.46 in -
Precipitation: 0.00 in    
Historical Graphs
 
 
Tabular Data for February 1, 2018
Time Temperature Dew Point Pressure Wind Wind Speed Wind Gust Humidity Rainfall Rate (Hourly) solar Conditions
TemperatureF °F DewpointF °F PressureIn in Calm     Humidity% HourlyPrecipIn in SoftwareType W/m2 Conditions
08:50 71.4 °F 45.1 °F 29.51 in ENE 2.0 mph 3.0 mph 39% 0.00 in meteobridge W/m2
08:56 72.1 °F 45.9 °F 29.52 in East 0.9 mph 3.0 mph 39% 0.00 in meteobridge W/m2
09:02 73.0 °F 45.9 °F 29.52 in NE 2.0 mph 6.0 mph 38% 0.00 in meteobridge W/m2
09:08 73.2 °F 46.0 °F 29.52 in South 8.9 mph 12.0 mph 38% 0.00 in meteobridge W/m2
09:14 70.7 °F 46.4 °F 29.52 in SSW 6.0 mph 12.0 mph 42% 0.00 in meteobridge W/m2
09:20 69.6 °F 46.2 °F 29.52 in SSW 6.9 mph 9.0 mph 43% 0.00 in meteobridge W/m2
09:26 70.2 °F 48.9 °F 29.52 in SSW 6.0 mph 7.0 mph 47% 0.00 in meteobridge W/m2
09:32 70.5 °F 49.8 °F 29.52 in SSW 10.1 mph 11.0 mph 48% 0.00 in meteobridge W/m2
09:38 70.9 °F 50.2 °F 29.52 in South 8.1 mph 12.0 mph 48% 0.00 in meteobridge W/m2
09:44 70.7 °F 49.5 °F 29.52 in SSW 6.9 mph 10.0 mph 47% 0.00 in meteobridge W/m2
09:50 70.9 °F 49.1 °F 29.52 in SSW 2.9 mph 7.0 mph 46% 0.00 in meteobridge W/m2
09:57 72.3 °F 50.9 °F 29.52 in SSE 2.9 mph 10.0 mph 47% 0.00 in meteobridge W/m2
10:03 73.0 °F 51.1 °F 29.52 in South 2.9 mph 9.0 mph 46% 0.00 in meteobridge W/m2
10:09 74.8 °F 51.4 °F 29.52 in ENE 0.9 mph 5.0 mph 44% 0.00 in meteobridge W/m2
10:15 76.5 °F 51.6 °F 29.52 in South 2.0 mph 10.0 mph 42% 0.00 in meteobridge W/m2
10:21 76.3 °F 50.9 °F 29.52 in South 2.9 mph 5.0 mph 41% 0.00 in meteobridge W/m2
10:27 76.3 °F 51.4 °F 29.53 in NNE 8.9 mph 14.0 mph 42% 0.00 in meteobridge W/m2
10:35 75.6 °F 50.9 °F 29.53 in ENE 4.0 mph 13.0 mph 42% 0.00 in meteobridge W/m2
10:41 75.7 °F 52.3 °F 29.53 in NE 6.9 mph 10.0 mph 44% 0.00 in meteobridge W/m2
10:47 76.6 °F 51.8 °F 29.53 in Calm   12.0 mph 42% 0.00 in meteobridge W/m2
10:54 77.4 °F 51.8 °F 29.53 in SE 0.9 mph 3.0 mph 41% 0.00 in meteobridge W/m2
11:00 75.7 °F 51.1 °F 29.53 in SSE 2.0 mph 13.0 mph 42% 0.00 in meteobridge W/m2
11:06 76.8 °F 51.3 °F 29.53 in South 2.9 mph 5.0 mph 41% 0.00 in meteobridge W/m2
11:24 78.3 °F 51.3 °F 29.52 in SSE 2.9 mph 4.0 mph 39% 0.00 in meteobridge W/m2
11:31 78.6 °F 50.9 °F 29.53 in SSW 6.9 mph 13.0 mph 38% 0.00 in meteobridge W/m2
11:37 77.5 °F 50.5 °F 29.53 in SSE 8.9 mph 11.0 mph 39% 0.00 in meteobridge W/m2
11:43 77.7 °F 50.0 °F 29.52 in SSW 6.9 mph 9.0 mph 38% 0.00 in meteobridge W/m2
11:49 78.4 °F 49.3 °F 29.52 in ESE 10.1 mph 10.1 mph 36% 0.00 in meteobridge W/m2
11:55 79.2 °F 49.1 °F 29.52 in SSE 4.9 mph 12.0 mph 35% 0.00 in meteobridge W/m2
12:01 79.3 °F 50.0 °F 29.52 in Calm   10.0 mph 36% 0.00 in meteobridge W/m2
12:08 80.2 °F 50.2 °F 29.52 in SE 4.9 mph 5.0 mph 35% 0.00 in meteobridge W/m2
12:14 81.1 °F 50.2 °F 29.52 in NE 4.9 mph 7.0 mph 34% 0.00 in meteobridge W/m2
12:20 82.2 °F 50.2 °F 29.51 in NNE 15.0 mph 15.0 mph 33% 0.00 in meteobridge W/m2
12:26 82.2 °F 49.5 °F 29.52 in NNE 6.9 mph 16.0 mph 32% 0.00 in meteobridge W/m2
12:32 81.5 °F 49.6 °F 29.51 in ENE 11.0 mph 12.0 mph 33% 0.00 in meteobridge W/m2
12:38 81.7 °F 48.9 °F 29.51 in NNE 10.1 mph 17.0 mph 32% 0.00 in meteobridge W/m2
12:44 81.1 °F 49.3 °F 29.51 in NE 8.9 mph 15.0 mph 33% 0.00 in meteobridge W/m2
12:50 81.9 °F 48.2 °F 29.52 in ENE 4.9 mph 15.0 mph 31% 0.00 in meteobridge W/m2
13:12 83.8 °F 48.2 °F 29.51 in ESE 2.0 mph 6.0 mph 29% 0.00 in meteobridge W/m2
13:19 83.8 °F 47.3 °F 29.50 in NW 4.0 mph 7.0 mph 28% 0.00 in meteobridge W/m2
13:25 84.7 °F 47.1 °F 29.50 in NNW 17.0 mph 17.0 mph 27% 0.00 in meteobridge W/m2
13:31 84.2 °F 47.5 °F 29.50 in NE 6.0 mph 9.0 mph 28% 0.00 in meteobridge W/m2
13:37 84.7 °F 48.0 °F 29.49 in NE 8.1 mph 8.1 mph 28% 0.00 in meteobridge W/m2
13:43 85.3 °F 47.5 °F 29.49 in NNE 8.1 mph 15.0 mph 27% 0.00 in meteobridge W/m2
13:49 84.6 °F 47.8 °F 29.49 in NNE 11.0 mph 15.0 mph 28% 0.00 in meteobridge W/m2
13:55 84.4 °F 47.7 °F 29.49 in SE 4.0 mph 4.0 mph 28% 0.00 in meteobridge W/m2
14:01 86.0 °F 48.2 °F 29.48 in NNE 15.0 mph 17.0 mph 27% 0.00 in meteobridge W/m2
14:07 84.6 °F 47.8 °F 29.48 in East 4.9 mph 9.0 mph 28% 0.00 in meteobridge W/m2
14:13 85.8 °F 48.0 °F 29.48 in SE 4.9 mph 9.0 mph 27% 0.00 in meteobridge W/m2
14:19 87.3 °F 49.3 °F 29.48 in ESE 4.0 mph 10.0 mph 27% 0.00 in meteobridge W/m2
14:25 88.3 °F 48.0 °F 29.48 in SE 4.0 mph 6.0 mph 25% 0.00 in meteobridge W/m2
14:31 87.6 °F 47.5 °F 29.46 in North 11.0 mph 12.0 mph 25% 0.00 in meteobridge W/m2
14:37 88.5 °F 49.3 °F 29.46 in East 11.0 mph 14.0 mph 26% 0.00 in meteobridge W/m2
14:43 88.9 °F 47.5 °F 29.46 in East 6.9 mph 15.0 mph 24% 0.00 in meteobridge W/m2
14:50 87.1 °F 48.0 °F 29.46 in NNE 12.1 mph 16.0 mph 26% 0.00 in meteobridge W/m2
14:56 86.9 °F 46.8 °F 29.46 in East 10.1 mph 17.0 mph 25% 0.00 in meteobridge W/m2
15:06 86.9 °F 46.8 °F 29.47 in South 4.9 mph 7.0 mph 25% 0.00 in meteobridge W/m2
15:24 80.2 °F 46.9 °F 29.47 in North 21.0 mph 21.0 mph 31% 0.00 in meteobridge W/m2
15:45 77.4 °F 46.0 °F 29.47 in North 14.1 mph 16.0 mph 33% 0.00 in meteobridge W/m2
15:51 76.8 °F 44.8 °F 29.47 in North 13.0 mph 16.0 mph 32% 0.00 in meteobridge W/m2
15:57 76.5 °F 46.0 °F 29.48 in North 15.0 mph 17.0 mph 34% 0.00 in meteobridge W/m2
16:18 73.9 °F 50.0 °F 29.47 in WNW 10.1 mph 11.0 mph 43% 0.00 in meteobridge W/m2
16:24 74.5 °F 49.3 °F 29.47 in SE 10.1 mph 16.0 mph 41% 0.00 in meteobridge W/m2
16:30 75.6 °F 48.9 °F 29.47 in WNW 10.1 mph 21.0 mph 39% 0.00 in meteobridge W/m2
16:36 76.1 °F 49.3 °F 29.47 in ENE 0.9 mph 12.0 mph 39% 0.00 in meteobridge W/m2
16:42 75.6 °F 50.2 °F 29.46 in SSE 6.9 mph 12.0 mph 41% 0.00 in meteobridge W/m2
16:48 75.9 °F 49.8 °F 29.47 in South 6.0 mph 18.0 mph 40% 0.00 in meteobridge W/m2
16:54 77.7 °F 49.5 °F 29.47 in SE 4.0 mph 17.0 mph 37% 0.00 in meteobridge W/m2
17:00 76.6 °F 47.7 °F 29.47 in SSE 11.0 mph 13.0 mph 36% 0.00 in meteobridge W/m2
17:07 75.6 °F 47.5 °F 29.47 in East 6.0 mph 13.0 mph 37% 0.00 in meteobridge W/m2
17:13 75.4 °F 47.3 °F 29.47 in SSE 4.9 mph 9.0 mph 37% 0.00 in meteobridge W/m2
17:19 75.4 °F 47.3 °F 29.48 in SE 4.0 mph 12.0 mph 37% 0.00 in meteobridge W/m2
17:25 73.8 °F 48.6 °F 29.49 in South 11.0 mph 20.0 mph 41% 0.00 in meteobridge W/m2
17:31 73.0 °F 48.6 °F 29.49 in South 16.1 mph 16.1 mph 42% 0.00 in meteobridge W/m2
17:37 73.0 °F 48.6 °F 29.51 in South 16.1 mph -999.0 mph 42% 0.00 in meteobridge W/m2
17:44 73.0 °F 48.6 °F 29.51 in North -999.9 mph -999.0 mph 42% 0.00 in meteobridge W/m2
Regenstein, Windhoek, Namibia
Compliments of Weather Underground - 2.5 mb